Kirkville, IA (52566)

12:39 AM CST on February 12, 2016 (GMT -0600)
Ottumwa Industrial | | Change Station
CLOSE
Current Station
Airport
Location: Ottumwa,
Elevation: 843 ft
Nearby Weather Stations

Elev 843 ft 41.11 °N, 92.45 °W | Updated 46 minutes ago

Overcast
Overcast
19 °F
Feels Like 19 °F
N
0
Wind Variable Wind from North

Today
High -- | Low -- °F
--% Chance of Precip.
Yesterday
High -- | Low -- °F
Precip. -- in
Pressure 30.28 in
Visibility 10.0 miles
Clouds Overcast 6500 ft
Dew Point 17 °F
Humidity 92%
Rainfall 0.00 in
Snow Depth Not available.
7:08 AM 5:39 PM
Waxing Crescent, 18% visible
METAR KOTM 120553Z AUTO 00000KT 10SM OVC065 M07/M08 A3024 RMK AO2 SNE44 SLP254 P0000 60000 T10721083 11050 21072 410501156 58007
Pressure 30.28 in
Visibility 10.0 miles
Clouds Overcast 6500 ft
Dew Point 17 °F
Humidity 92%
Rainfall 0.00 in
Snow Depth Not available.
7:08 AM 5:39 PM
Waxing Crescent, 18% visible
METAR KOTM 120553Z AUTO 00000KT 10SM OVC065 M07/M08 A3024 RMK AO2 SNE44 SLP254 P0000 60000 T10721083 11050 21072 410501156 58007

10-Day Weather Forecast

Almanac

Astronomy

Feb. 12, 2016 Rise Set
Actual Time
Civil Twilight
Nautical Twilight
Astronomical Twilight
Moon
Length of Visible Light
Length of Day
Tomorrow will be .
, % of the Moon is Illuminated

Today's Extremes

State Highs State Lows

Community

WunderPhotos

Upload Photos

1,892,276 photos uploaded!

WunderBlog® & News

Nearby

Air Quality

  Air Quality AQ Index Pollutant
Not available.

Snow Depth

Station Depth Elevation

Earthquake Activity

City Distance Mag. Time & Date
Minimum magnitude displayed is 2.5.

Coastal Water Temperatures

Place Temperature

Stations

Nearby Weather Stations

Station Location Temp. Windchill Dew Point Humidity Wind Precip. Elev Updated Type
                   

Watches & Warnings

There are currently no watches in effect.